Hauptseite
METAR-TAF:

METAR-TAF

Flughäfen :

Flughafen Kuwait

Kuwait-Stadt, Kuwait

Breite: 29-13N, Länge: 047-59E, Höhe: 55 m

Beobachtung

Neuester Wetterbericht von vor 55 Minuten, um 14:00 UTC
Wind 12 kt aus Ost/Südost
Temperatur 44°C
Luftfeuchtigkeit 15%
Luftdruck 996 hPa
Sichtweite 10 km oder mehr
keine Wolken unter 1500 m und keine Kumulonimbus oder Gewitterwolken

METAR: OKBK 081400Z 11012KT CAVOK 44/12 Q0996 NOSIG

Zeit: 17:55 (14:55 UTC)

Prognose

Neuester Wetterbericht von vor 4 Stunden und 10 Minuten, um 10:45 UTC
Gültige Prognose vom 08 um 12 UTC bis 09 um 18 UTC
Wind 12 kt aus Südost
Sichtweite: 7000 m

TAF: OKBK 081045Z 0812/0918 13012KT 7000 NSC

Wetterbeobachtungen und Prognosen von mehr als 4000 Flughäfen (METAR und TAF Bericht).

Die verfügbaren Stationen werden durch gelbe und rote Markierungen auf der Karte dargestellt.

Führen Sie die Maus auf sie, um den Namen der Station zu sehen.

Darauf klicken, um die Beobachtung von Wetterbeobachtungen und Prognosen zu sehen.

Um die Karte zu ändern : klicken Sie auf den grünen Tasten mit einem schwarzen Kreuz Zum Vergrößern, auf den grünen Button mit einem Gedankenstrich zu verkleinern, oder auf die grünen Pfeile für benachbarte Karten.


METAR-TAF: